Time;durP1;ratioP1;P1;durP2;ratioP2;P2;SDS_P1;SDS_P2;PMS_P1;PMS_P2;Temp;Humidity;BMP_temperature;BMP_pressure;BME280_temperature;BME280_humidity;BME280_pressure;Samples;Min_cycle;Max_cycle;Signal;HPM_P1;HPM_P2
2022/09/25 00:00:44;;;;;;;8.35;2.98;;;;;;;9.93;84.42;150150.84;1784290;79;21042;-60
2022/09/25 00:03:12;;;;;;;4.97;2.42;;;;;;;9.91;84.82;150144.34;1785652;79;21944;-61
2022/09/25 00:05:42;;;;;;;4.15;2.77;;;;;;;9.88;85.43;150137.88;1784936;79;20950;-60
2022/09/25 00:08:09;;;;;;;5.12;2.92;;;;;;;9.85;85.85;150131.38;1783613;79;21033;-61
2022/09/25 00:10:42;;;;;;;9.43;3.20;;;;;;;9.84;86.52;150127.52;1783473;79;21005;-61
2022/09/25 00:13:10;;;;;;;5.78;2.45;;;;;;;9.81;87.08;150119.69;1786728;79;21515;-67
2022/09/25 00:15:37;;;;;;;7.95;3.17;;;;;;;9.80;87.38;150117.09;1785866;78;21203;-66
2022/09/25 00:18:04;;;;;;;8.58;2.87;;;;;;;9.80;87.54;150117.09;1795028;79;21848;-67
2022/09/25 00:20:31;;;;;;;4.87;2.92;;;;;;;9.80;87.47;150117.09;1785883;79;20991;-66
2022/09/25 00:23:01;;;;;;;6.90;2.87;;;;;;;9.79;87.32;150115.83;1787824;79;21086;-66
2022/09/25 00:25:27;;;;;;;9.10;2.80;;;;;;;9.80;87.33;150118.42;1786428;79;21056;-65
2022/09/25 00:27:54;;;;;;;6.40;2.83;;;;;;;9.80;87.05;150118.42;1793677;79;21125;-66
2022/09/25 00:30:21;;;;;;;4.53;2.85;;;;;;;9.82;86.84;150122.28;1786096;79;21034;-65
2022/09/25 00:32:48;;;;;;;6.40;3.00;;;;;;;9.84;86.68;150127.52;1788706;79;21469;-66
2022/09/25 00:35:15;;;;;;;8.08;3.05;;;;;;;9.85;86.71;150130.11;1795520;79;21101;-65
2022/09/25 00:37:42;;;;;;;5.37;2.70;;;;;;;9.88;86.54;150139.16;1795262;79;21062;-66
2022/09/25 00:40:09;;;;;;;6.10;2.80;;;;;;;9.91;86.53;150145.66;1780777;79;21220;-64
2022/09/25 00:42:36;;;;;;;8.05;2.90;;;;;;;9.95;86.47;150154.75;1786921;79;21079;-67
2022/09/25 00:45:10;;;;;;;4.12;2.62;;;;;;;9.97;86.20;150161.20;1779681;79;21021;-66
2022/09/25 00:47:51;;;;;;;3.60;2.62;;;;;;;10.01;85.99;150170.31;1775815;79;21487;-67
2022/09/25 00:50:48;;;;;;;9.98;2.85;;;;;;;10.04;85.83;150179.34;1788076;79;21081;-65
2022/09/25 00:53:23;;;;;;;8.28;3.12;;;;;;;10.08;85.69;150188.45;1778838;79;21293;-66
2022/09/25 00:55:49;;;;;;;6.50;2.83;;;;;;;10.14;85.72;150202.73;1790079;79;21082;-65
2022/09/25 00:58:20;;;;;;;3.83;2.55;;;;;;;10.18;85.54;150214.42;1785308;79;21010;-65
2022/09/25 01:00:47;;;;;;;6.37;3.00;;;;;;;10.22;85.26;150222.19;1786812;79;21081;-62
2022/09/25 01:03:13;;;;;;;6.67;2.90;;;;;;;10.25;84.87;150231.25;1789715;79;21488;-60
2022/09/25 01:05:41;;;;;;;10.10;2.40;;;;;;;10.27;84.48;150236.44;1787917;79;21310;-59
2022/09/25 01:08:11;;;;;;;4.15;2.40;;;;;;;10.29;84.05;150240.34;1788426;79;21066;-61
2022/09/25 01:10:38;;;;;;;5.33;2.58;;;;;;;10.31;83.48;150246.84;1789341;79;21053;-62
2022/09/25 01:13:05;;;;;;;7.05;2.25;;;;;;;10.31;82.82;150245.53;1787993;79;20989;-62
2022/09/25 01:15:50;;;;;;;9.30;2.45;;;;;;;10.32;82.35;150248.13;1783216;79;21054;-61
2022/09/25 01:18:29;;;;;;;7.90;2.80;;;;;;;10.32;81.76;150249.44;1787505;79;22057;-61
2022/09/25 01:21:28;;;;;;;5.72;2.58;;;;;;;10.34;81.31;150252.03;1781218;79;21445;-61
2022/09/25 01:24:41;;;;;;;3.98;2.45;;;;;;;10.36;81.13;150257.22;1786076;79;21119;-60
2022/09/25 01:27:58;;;;;;;6.45;2.45;;;;;;;10.36;80.97;150257.22;1792160;79;21563;-61
2022/09/25 01:30:25;;;;;;;3.70;2.10;;;;;;;10.38;80.76;150262.41;1696039;83;21552;-65
2022/09/25 01:33:17;;;;;;;7.03;2.60;;;;;;;10.41;80.56;150270.23;1752473;79;21250;-65
2022/09/25 01:36:01;;;;;;;5.28;2.25;;;;;;;10.43;80.32;150275.42;1789374;79;21112;-67
2022/09/25 01:38:35;;;;;;;3.75;2.12;;;;;;;10.46;80.17;150283.19;1794907;79;20998;-67
2022/09/25 01:41:13;;;;;;;5.22;2.30;;;;;;;10.46;79.98;150283.19;1781853;79;21037;-61
2022/09/25 01:43:52;;;;;;;7.42;2.40;;;;;;;10.44;79.69;150278.02;1791245;79;21027;-62
2022/09/25 01:46:21;;;;;;;3.27;2.33;;;;;;;10.44;79.45;150278.02;1784879;79;21225;-60
2022/09/25 01:48:59;;;;;;;2.98;2.08;;;;;;;10.42;79.20;150274.16;1791936;79;20963;-60
2022/09/25 01:51:33;;;;;;;3.58;2.30;;;;;;;10.43;78.99;150275.42;1785663;79;21029;-60
2022/09/25 01:54:07;;;;;;;3.45;2.10;;;;;;;10.43;78.76;150275.42;1792346;78;26932;-61
2022/09/25 01:56:45;;;;;;;3.98;2.30;;;;;;;10.43;78.28;150275.42;1788869;79;21666;-60
2022/09/25 01:59:16;;;;;;;4.58;2.20;;;;;;;10.45;78.01;150280.59;1791169;79;21236;-61
2022/09/25 02:01:43;;;;;;;3.75;2.17;;;;;;;10.46;77.73;150284.52;1784368;78;21069;-60
2022/09/25 02:04:23;;;;;;;5.28;2.40;;;;;;;10.49;77.43;150289.70;1779691;80;21030;-62
2022/09/25 02:06:50;;;;;;;3.17;2.02;;;;;;;10.50;77.08;150293.61;1781708;79;21046;-60
2022/09/25 02:09:40;;;;;;;2.95;2.40;;;;;;;10.51;76.95;150296.20;1784987;79;21030;-60
2022/09/25 02:12:22;;;;;;;6.22;2.27;;;;;;;10.51;76.83;150296.20;1782397;79;21077;-60
2022/09/25 02:14:58;;;;;;;4.12;2.15;;;;;;;10.52;76.75;150298.80;1777483;79;20922;-61
2022/09/25 02:20:30;;;;;;;4.08;2.20;;;;;;;10.50;76.67;150293.61;1780112;79;20998;-61
2022/09/25 02:23:12;;;;;;;3.60;2.30;;;;;;;10.48;76.61;150288.38;1787536;79;21455;-61
2022/09/25 02:25:43;;;;;;;4.67;2.37;;;;;;;10.46;76.67;150283.19;1781830;79;21233;-60
2022/09/25 02:28:10;;;;;;;3.92;2.20;;;;;;;10.43;76.66;150276.73;1783255;79;21465;-59
2022/09/25 02:30:37;;;;;;;3.90;2.22;;;;;;;10.42;76.69;150272.83;1783947;79;21046;-61
2022/09/25 02:33:04;;;;;;;5.62;2.62;;;;;;;10.40;76.77;150267.59;1785504;79;21631;-61
2022/09/25 02:35:31;;;;;;;5.37;2.30;;;;;;;10.38;76.90;150263.69;1786335;79;21070;-61
2022/09/25 02:37:59;;;;;;;5.08;2.40;;;;;;;10.37;77.10;150259.81;1776031;79;21599;-60
2022/09/25 02:40:49;;;;;;;3.20;2.25;;;;;;;10.35;77.46;150255.91;1784872;79;21053;-61
2022/09/25 02:43:45;;;;;;;4.25;2.60;;;;;;;10.34;77.77;150252.03;1780364;79;21443;-60
2022/09/25 02:46:17;;;;;;;4.08;2.30;;;;;;;10.28;78.01;150239.08;1783732;79;21013;-60
2022/09/25 02:49:18;;;;;;;6.00;2.42;;;;;;;10.26;78.16;150233.84;1792153;79;21493;-60
2022/09/25 02:52:14;;;;;;;7.92;2.40;;;;;;;10.24;78.18;150228.66;1785218;79;21147;-60
2022/09/25 02:54:58;;;;;;;5.78;2.35;;;;;;;10.20;78.07;150218.28;1790566;79;21035;-61
2022/09/25 02:57:42;;;;;;;4.53;2.12;;;;;;;10.17;77.83;150211.83;1780639;79;21279;-60
2022/09/25 03:00:10;;;;;;;4.60;2.33;;;;;;;10.16;77.55;150207.91;1786820;79;20950;-60
2022/09/25 03:02:37;;;;;;;3.15;2.20;;;;;;;10.13;77.27;150201.41;1799625;78;21614;-61
2022/09/25 03:05:06;;;;;;;5.22;3.33;;;;;;;10.13;77.02;150200.13;1803959;78;21861;-61
2022/09/25 03:08:36;;;;;;;13.60;5.45;;;;;;;10.11;76.75;150194.95;1802830;79;21475;-61
2022/09/25 03:10:01;;;;;;;37.55;19.27;;;;;;;10.10;76.39;150192.36;1771005;79;21532;-61
2022/09/25 03:12:28;;;;;;;50.85;24.60;;;;;;;10.08;75.97;150187.17;1764343;80;21086;-61
2022/09/25 03:14:55;;;;;;;65.00;31.45;;;;;;;10.07;75.55;150184.59;1766582;79;21070;-60
2022/09/25 03:17:22;;;;;;;66.35;29.05;;;;;;;10.07;75.11;150184.59;1800881;78;21870;-61
2022/09/25 03:19:49;;;;;;;40.55;19.90;;;;;;;10.07;74.81;150184.59;1790952;79;21126;-61
2022/09/25 03:22:17;;;;;;;25.70;13.03;;;;;;;10.08;74.53;150187.17;1787304;79;21025;-61
2022/09/25 03:24:46;;;;;;;24.82;12.53;;;;;;;10.07;74.24;150185.86;1789796;79;21021;-61
2022/09/25 03:27:13;;;;;;;18.05;8.98;;;;;;;10.08;74.22;150187.17;1797659;79;21563;-61
2022/09/25 03:29:41;;;;;;;12.98;6.05;;;;;;;10.04;74.27;150179.34;1790874;79;21195;-61
2022/09/25 03:32:09;;;;;;;12.47;5.55;;;;;;;10.03;74.10;150175.48;1781319;79;21001;-61
2022/09/25 03:34:35;;;;;;;7.80;4.03;;;;;;;10.01;73.90;150171.58;1789503;79;21064;-60
2022/09/25 03:37:02;;;;;;;5.78;3.45;;;;;;;10.02;73.54;150174.17;1793407;78;21071;-60
2022/09/25 03:39:29;;;;;;;8.25;3.62;;;;;;;10.02;73.32;150174.17;1796278;79;21034;-66
2022/09/25 03:41:56;;;;;;;13.93;3.92;;;;;;;10.03;73.32;150175.48;1796493;79;21510;-67
2022/09/25 03:44:23;;;;;;;7.92;3.47;;;;;;;10.03;73.17;150176.75;1794781;78;21046;-61
2022/09/25 03:46:49;;;;;;;7.62;3.30;;;;;;;10.03;73.11;150175.48;1795704;78;21022;-59
2022/09/25 03:49:16;;;;;;;10.72;3.55;;;;;;;10.02;73.00;150174.17;1794561;79;21065;-60
2022/09/25 03:51:43;;;;;;;8.80;4.03;;;;;;;10.03;72.77;150175.48;1794140;79;21314;-61
2022/09/25 03:54:10;;;;;;;6.95;3.15;;;;;;;10.04;72.51;150178.08;1792962;79;21288;-59
2022/09/25 03:56:37;;;;;;;6.53;2.85;;;;;;;10.07;72.25;150184.59;1801376;79;20927;-60
2022/09/25 03:59:03;;;;;;;5.65;2.55;;;;;;;10.10;72.00;150192.36;1781563;78;21046;-60
2022/09/25 04:01:30;;;;;;;5.78;2.75;;;;;;;10.14;71.75;150202.73;1774817;80;21055;-60
2022/09/25 04:04:02;;;;;;;6.40;2.87;;;;;;;10.19;71.56;150215.69;1778041;80;20983;-65
2022/09/25 04:06:26;;;;;;;5.28;2.80;;;;;;;10.25;71.38;150231.25;1776204;80;22072;-66
2022/09/25 04:08:53;;;;;;;6.42;3.40;;;;;;;10.31;71.31;150246.84;1781717;79;21050;-66
2022/09/25 04:11:21;;;;;;;8.78;3.40;;;;;;;10.38;71.44;150262.41;1777674;79;20974;-67
2022/09/25 04:13:50;;;;;;;5.60;2.65;;;;;;;10.44;71.48;150278.02;1775291;80;21038;-61
2022/09/25 04:16:19;;;;;;;4.67;2.37;;;;;;;10.52;71.34;150297.47;1776399;80;21086;-61
2022/09/25 04:18:46;;;;;;;7.75;3.15;;;;;;;10.59;71.02;150316.95;1773310;80;21867;-61
2022/09/25 04:21:13;;;;;;;8.80;2.85;;;;;;;10.69;70.67;150340.30;1774970;80;21011;-61
2022/09/25 04:23:41;;;;;;;7.20;2.70;;;;;;;10.79;70.30;150366.28;1778119;79;21033;-61
2022/09/25 04:26:08;;;;;;;6.10;2.50;;;;;;;10.91;69.88;150396.13;1783432;80;20963;-61
2022/09/25 04:28:35;;;;;;;9.00;2.20;;;;;;;11.03;69.40;150425.98;1773558;80;21101;-61
2022/09/25 04:31:02;;;;;;;6.97;2.20;;;;;;;11.17;68.83;150461.02;1776057;79;21224;-66
2022/09/25 04:33:47;;;;;;;10.38;2.52;;;;;;;11.30;68.25;150494.80;1780086;80;20971;-66
2022/09/25 04:36:15;;;;;;;7.72;2.35;;;;;;;11.48;67.70;150537.63;1776761;79;21042;-66
2022/09/25 04:38:42;;;;;;;8.88;2.72;;;;;;;11.66;66.64;150583.06;1775722;80;21059;-65
2022/09/25 04:41:10;;;;;;;9.50;2.60;;;;;;;11.85;66.23;150631.16;1780262;79;21097;-66
2022/09/25 04:43:37;;;;;;;8.78;2.70;;;;;;;12.03;65.70;150677.92;1776885;80;21145;-67
2022/09/25 04:46:07;;;;;;;4.50;2.10;;;;;;;12.23;65.05;150727.30;1773449;80;21037;-60
2022/09/25 04:48:34;;;;;;;8.53;2.67;;;;;;;12.44;64.47;150779.27;1776607;80;20999;-67
2022/09/25 04:51:01;;;;;;;8.53;2.33;;;;;;;12.63;63.13;150827.39;1783994;80;21082;-66
2022/09/25 04:53:29;;;;;;;16.87;3.10;;;;;;;12.81;62.77;150872.86;1783567;79;21059;-67
2022/09/25 04:56:04;;;;;;;6.45;2.40;;;;;;;13.01;62.47;150923.53;1774110;79;21563;-65
2022/09/25 04:58:33;;;;;;;7.55;2.40;;;;;;;13.25;61.73;150982.06;1784561;79;22353;-66
2022/09/25 05:01:08;;;;;;;9.70;2.85;;;;;;;13.68;61.34;151091.34;1782435;80;21066;-61
2022/09/25 05:03:35;;;;;;;9.25;3.08;;;;;;;14.04;60.27;151181.08;1782172;80;21018;-60
2022/09/25 05:06:04;;;;;;;13.35;3.22;;;;;;;14.06;60.11;151185.00;1769105;80;21525;-67
2022/09/25 05:08:31;;;;;;;27.37;4.30;;;;;;;13.91;60.90;151148.56;1781593;80;21822;-60
2022/09/25 05:10:57;;;;;;;20.30;3.90;;;;;;;13.81;61.83;151123.84;1785993;80;21042;-61
2022/09/25 05:13:24;;;;;;;10.25;3.50;;;;;;;13.79;62.81;151117.33;1782088;80;21532;-62
2022/09/25 05:15:51;;;;;;;9.80;3.27;;;;;;;13.82;63.46;151125.17;1786887;79;20973;-66
2022/09/25 05:18:20;;;;;;;12.25;3.10;;;;;;;13.90;63.30;151145.97;1765099;80;21116;-67
2022/09/25 05:20:48;;;;;;;16.80;3.70;;;;;;;14.04;62.57;151181.08;1773852;80;21127;-66
2022/09/25 05:23:15;;;;;;;14.75;3.40;;;;;;;14.20;62.05;151220.13;1773561;80;21104;-61
2022/09/25 05:25:42;;;;;;;11.78;2.80;;;;;;;14.33;61.18;151255.25;1778952;80;20969;-67
2022/09/25 05:28:10;;;;;;;7.97;3.02;;;;;;;14.64;59.65;151332.03;1782920;80;21070;-60
2022/09/25 05:30:37;;;;;;;10.98;3.02;;;;;;;15.10;57.35;151447.91;1786862;80;21066;-60
2022/09/25 05:33:05;;;;;;;19.77;3.37;;;;;;;15.55;55.22;151561.20;1780030;80;21235;-61
2022/09/25 05:35:33;;;;;;;19.40;3.33;;;;;;;15.82;53.85;151627.63;1787271;78;21034;-61
2022/09/25 05:38:00;;;;;;;23.38;3.85;;;;;;;15.98;53.02;151669.33;1788058;80;21081;-61
2022/09/25 05:40:27;;;;;;;34.03;5.15;;;;;;;16.20;52.87;151724.03;1786712;79;21518;-62
2022/09/25 05:42:54;;;;;;;23.67;4.47;;;;;;;16.49;52.71;151797.03;1777397;80;21069;-62
2022/09/25 05:45:22;;;;;;;28.57;4.90;;;;;;;16.64;51.41;151834.81;1772890;80;21232;-66
2022/09/25 05:48:03;;;;;;;23.77;3.80;;;;;;;16.58;51.42;151820.47;1783871;80;21026;-67
2022/09/25 05:50:31;;;;;;;23.50;3.65;;;;;;;16.58;50.35;151820.47;1778133;79;21066;-61
2022/09/25 05:53:00;;;;;;;15.45;3.42;;;;;;;16.60;49.32;151825.69;1783179;80;21039;-66
2022/09/25 05:55:29;;;;;;;12.82;2.95;;;;;;;16.65;48.72;151836.09;1787171;80;20954;-67
2022/09/25 05:58:01;;;;;;;9.10;2.55;;;;;;;16.71;47.86;151851.77;1781451;80;21749;-60
2022/09/25 06:00:30;;;;;;;6.72;2.47;;;;;;;16.74;47.41;151859.58;1779385;80;21026;-62
2022/09/25 06:02:58;;;;;;;7.53;2.65;;;;;;;16.70;47.22;151849.17;1778891;80;21034;-62
2022/09/25 06:05:25;;;;;;;6.62;2.60;;;;;;;16.64;47.07;151834.81;1779969;79;21081;-61
2022/09/25 06:07:53;;;;;;;9.48;2.45;;;;;;;16.57;47.23;151816.55;1779586;79;21089;-62
2022/09/25 06:10:20;;;;;;;11.25;2.58;;;;;;;16.53;47.13;151806.13;1775873;79;22619;-61
2022/09/25 06:12:47;;;;;;;8.75;2.50;;;;;;;16.52;47.52;151804.84;1766454;80;21130;-68
2022/09/25 06:15:15;;;;;;;7.15;2.42;;;;;;;16.53;47.60;151807.45;1776501;78;21091;-66
2022/09/25 06:17:42;;;;;;;6.53;2.35;;;;;;;16.56;47.44;151815.27;1779920;79;21077;-66
2022/09/25 06:20:10;;;;;;;4.80;2.08;;;;;;;16.63;47.09;151830.89;1775443;80;21023;-66
2022/09/25 06:22:38;;;;;;;6.58;2.20;;;;;;;16.71;46.97;151853.05;1784452;80;21245;-61
2022/09/25 06:25:07;;;;;;;14.78;3.55;;;;;;;16.81;46.87;151877.81;1774341;80;21285;-65
2022/09/25 06:27:33;;;;;;;14.45;3.65;;;;;;;16.95;49.78;151911.72;1779938;80;21469;-62
2022/09/25 06:30:00;;;;;;;21.00;4.05;;;;;;;17.03;51.30;151932.61;1779674;80;21070;-61
2022/09/25 06:32:27;;;;;;;18.27;4.30;;;;;;;17.08;52.01;151944.36;1776508;80;21026;-67
2022/09/25 06:34:55;;;;;;;15.88;4.78;;;;;;;17.09;52.66;151946.97;1779969;80;21400;-66
2022/09/25 06:37:22;;;;;;;20.12;4.33;;;;;;;17.13;54.97;151957.38;1774907;79;21571;-67
2022/09/25 06:39:49;;;;;;;11.48;3.40;;;;;;;17.16;54.65;151965.19;1779636;80;21109;-61
2022/09/25 06:42:16;;;;;;;7.67;2.33;;;;;;;17.25;54.36;151987.36;1779837;80;22229;-60
2022/09/25 06:44:43;;;;;;;4.42;1.75;;;;;;;17.38;50.95;152021.28;1779371;79;21109;-61
2022/09/25 06:47:12;;;;;;;4.03;1.57;;;;;;;17.51;48.24;152052.55;1784379;79;21491;-61
2022/09/25 06:49:39;;;;;;;2.15;1.60;;;;;;;17.65;46.31;152089.06;1784101;80;21073;-67
2022/09/25 06:52:08;;;;;;;2.72;1.60;;;;;;;17.76;44.70;152117.73;1780185;79;21041;-67
2022/09/25 06:54:36;;;;;;;5.40;1.45;;;;;;;17.88;44.41;152147.73;1778700;80;22166;-67
2022/09/25 06:57:03;;;;;;;3.22;1.40;;;;;;;18.06;44.11;152190.86;1780148;80;21102;-67
2022/09/25 06:59:30;;;;;;;3.80;1.60;;;;;;;18.21;43.91;152229.97;1771167;80;21187;-62
2022/09/25 07:03:43;;;;;;;2.30;1.40;;;;;;;18.42;44.53;152282.16;1778425;80;21027;-63
2022/09/25 07:04:25;;;;;;;1.72;1.40;;;;;;;19.10;43.78;152454.45;1772344;80;21253;-62
2022/09/25 07:06:55;;;;;;;1.85;1.52;;;;;;;19.68;41.46;152600.69;1778537;80;21022;-67
2022/09/25 07:09:21;;;;;;;1.40;1.30;;;;;;;19.89;41.25;152652.92;1776141;80;21050;-67
2022/09/25 07:11:50;;;;;;;1.72;1.50;;;;;;;19.87;41.69;152647.70;1780238;80;22779;-66
2022/09/25 07:14:17;;;;;;;1.70;1.40;;;;;;;19.76;42.03;152621.56;1770412;80;21062;-66
2022/09/25 07:16:44;;;;;;;3.65;1.82;;;;;;;19.81;42.62;152632.06;1777827;79;21063;-67
2022/09/25 07:19:11;;;;;;;2.45;1.57;;;;;;;19.97;42.13;152673.86;1782718;79;21511;-66
2022/09/25 07:21:37;;;;;;;1.60;1.35;;;;;;;19.93;41.56;152662.12;1773873;80;21047;-68
2022/09/25 07:24:05;;;;;;;2.95;1.30;;;;;;;19.82;41.26;152634.66;1777184;79;21633;-66
2022/09/25 07:26:33;;;;;;;2.27;1.50;;;;;;;19.64;41.35;152588.92;1778779;80;21026;-67
2022/09/25 07:29:03;;;;;;;1.52;1.42;;;;;;;19.51;41.92;152556.28;1771839;80;21011;-67
2022/09/25 07:31:32;;;;;;;4.00;1.42;;;;;;;19.43;42.20;152538.03;1776322;80;20940;-67
2022/09/25 07:34:01;;;;;;;2.27;1.60;;;;;;;19.23;42.41;152485.80;1770770;79;21064;-68
2022/09/25 07:36:28;;;;;;;1.77;1.40;;;;;;;19.08;43.01;152449.23;1780859;80;21545;-66
2022/09/25 07:38:54;;;;;;;1.60;1.50;;;;;;;19.00;43.58;152429.66;1780482;80;21825;-67
2022/09/25 07:41:22;;;;;;;1.95;1.50;;;;;;;18.97;44.22;152421.78;1773439;80;21114;-67
2022/09/25 07:43:57;;;;;;;2.42;1.70;;;;;;;18.90;44.29;152403.53;1773698;80;21058;-66
2022/09/25 07:46:24;;;;;;;1.80;1.70;;;;;;;18.85;44.96;152391.75;1780592;79;21038;-66
2022/09/25 07:48:52;;;;;;;2.85;1.70;;;;;;;18.83;45.42;152386.55;1783625;80;21887;-67
2022/09/25 07:51:20;;;;;;;2.62;1.50;;;;;;;18.81;45.79;152381.33;1781408;80;21012;-67
2022/09/25 07:53:47;;;;;;;1.57;1.47;;;;;;;18.76;46.17;152369.58;1772536;80;21125;-68
2022/09/25 07:56:14;;;;;;;2.15;1.30;;;;;;;18.75;46.37;152365.69;1781393;80;21363;-66
2022/09/25 07:58:41;;;;;;;4.90;1.65;;;;;;;18.73;46.71;152360.47;1774494;80;21193;-66
2022/09/25 08:01:11;;;;;;;2.05;1.35;;;;;;;18.71;47.33;152356.53;1778096;80;21194;-67
2022/09/25 08:03:37;;;;;;;2.22;1.60;;;;;;;18.71;47.48;152355.25;1777557;80;21054;-61
2022/09/25 08:06:12;;;;;;;1.37;1.27;;;;;;;18.66;47.74;152342.16;1777584;80;20975;-61
2022/09/25 08:08:36;;;;;;;1.77;1.50;;;;;;;18.65;48.13;152340.89;1776942;79;21057;-61
2022/09/25 08:11:10;;;;;;;2.42;1.55;;;;;;;18.68;47.66;152347.38;1766560;80;21073;-61
2022/09/25 08:13:37;;;;;;;1.45;1.30;;;;;;;18.67;46.80;152344.77;1777649;80;21204;-67
2022/09/25 08:16:06;;;;;;;2.20;1.55;;;;;;;18.65;47.26;152340.89;1777450;80;21034;-66
2022/09/25 08:18:33;;;;;;;3.22;1.70;;;;;;;18.67;46.96;152344.77;1776984;80;21392;-61
2022/09/25 08:21:02;;;;;;;2.45;1.60;;;;;;;18.68;46.80;152348.70;1772563;80;21010;-61
2022/09/25 08:23:31;;;;;;;3.75;1.62;;;;;;;18.73;46.75;152361.75;1773585;79;21022;-61
2022/09/25 08:25:58;;;;;;;1.90;1.60;;;;;;;18.75;46.36;152366.97;1776828;80;21233;-61
2022/09/25 08:28:25;;;;;;;2.50;1.70;;;;;;;18.74;46.53;152364.36;1773128;79;20970;-60
2022/09/25 08:30:53;;;;;;;2.42;1.42;;;;;;;18.73;46.33;152361.75;1777774;79;21039;-60
2022/09/25 08:33:19;;;;;;;1.52;1.42;;;;;;;18.73;46.58;152361.75;1775142;80;21089;-61
2022/09/25 08:35:58;;;;;;;1.67;1.57;;;;;;;18.79;46.58;152376.11;1777988;80;21575;-61
2022/09/25 08:38:25;;;;;;;2.40;1.70;;;;;;;18.83;46.79;152386.55;1777632;79;21300;-61
2022/09/25 08:40:57;;;;;;;2.05;1.45;;;;;;;18.84;46.99;152389.16;1777950;79;21107;-67
2022/09/25 08:43:24;;;;;;;1.90;1.70;;;;;;;18.85;47.06;152391.75;1778741;79;21364;-67
2022/09/25 08:49:09;;;;;;;;;;;;;;;18.86;47.64;152394.38;1775038;79;21022;-67
2022/09/25 08:51:37;;;;;;;1.62;1.40;;;;;;;18.94;48.03;152412.67;1776849;80;21131;-67
2022/09/25 08:54:05;;;;;;;1.70;1.60;;;;;;;19.01;48.19;152432.31;1760974;80;21037;-67
2022/09/25 08:56:34;;;;;;;2.80;1.62;;;;;;;19.09;48.17;152451.84;1772696;80;21022;-65
2022/09/25 08:59:09;;;;;;;1.87;1.65;;;;;;;19.08;48.10;152449.23;1774681;79;21417;-67
2022/09/25 09:01:46;;;;;;;2.17;1.50;;;;;;;19.09;48.38;152451.84;1798743;78;21696;-65
2022/09/25 09:04:32;;;;;;;2.02;1.60;;;;;;;19.12;48.57;152459.72;1796387;79;21484;-65
2022/09/25 09:07:25;;;;;;;2.72;1.80;;;;;;;19.14;48.83;152464.94;1796078;78;21066;-66
2022/09/25 09:10:02;;;;;;;2.25;1.72;;;;;;;19.18;49.24;152475.38;1796025;78;21857;-66
2022/09/25 09:12:46;;;;;;;2.12;1.90;;;;;;;19.14;49.47;152464.94;1796917;79;20962;-66
2022/09/25 09:15:39;;;;;;;2.83;1.82;;;;;;;19.09;50.16;152450.56;1794277;79;21491;-66
2022/09/25 09:18:26;;;;;;;5.10;1.87;;;;;;;19.05;50.11;152441.41;1797213;78;21238;-66
2022/09/25 09:20:55;;;;;;;3.40;1.77;;;;;;;19.00;50.53;152429.66;1793548;79;21019;-66
2022/09/25 09:23:32;;;;;;;2.52;1.82;;;;;;;19.01;51.19;152430.98;1796918;79;21227;-66
2022/09/25 09:26:05;;;;;;;2.90;2.00;;;;;;;19.01;51.57;152432.31;1791551;79;21022;-66
2022/09/25 09:28:55;;;;;;;7.58;2.12;;;;;;;19.02;51.44;152433.59;1790870;79;21605;-66
2022/09/25 09:31:34;;;;;;;2.33;1.80;;;;;;;19.03;51.59;152436.20;1786533;79;21225;-66
2022/09/25 09:34:35;;;;;;;4.10;2.30;;;;;;;19.04;52.21;152440.13;1801474;78;20970;-67
2022/09/25 09:37:23;;;;;;;2.20;2.00;;;;;;;19.07;52.83;152446.63;1765528;79;21033;-67
2022/09/25 09:40:21;;;;;;;3.98;1.82;;;;;;;19.13;52.94;152462.33;1799832;79;21058;-66
2022/09/25 09:43:02;;;;;;;3.25;1.90;;;;;;;19.15;53.20;152467.55;1787498;79;21081;-66
2022/09/25 09:45:53;;;;;;;2.75;1.75;;;;;;;19.20;52.85;152477.97;1796477;79;21156;-64
2022/09/25 09:48:53;;;;;;;3.22;1.90;;;;;;;19.22;52.56;152484.47;1795481;79;21009;-66
2022/09/25 09:51:28;;;;;;;2.55;1.60;;;;;;;19.20;52.94;152477.97;1788677;79;21460;-68
2022/09/25 09:54:13;;;;;;;6.28;1.90;;;;;;;19.09;53.49;152450.56;1796681;79;21081;-67
2022/09/25 09:56:42;;;;;;;3.08;1.60;;;;;;;19.00;54.12;152429.66;1802005;79;21101;-67
2022/09/25 09:59:19;;;;;;;4.17;1.87;;;;;;;18.99;54.42;152425.77;1795062;79;21095;-67
2022/09/25 10:02:00;;;;;;;3.17;1.50;;;;;;;18.99;54.88;152427.05;1795240;78;21279;-66
2022/09/25 10:04:32;;;;;;;2.98;1.60;;;;;;;18.99;55.62;152425.77;1798018;79;21069;-66
2022/09/25 10:07:10;;;;;;;1.90;1.40;;;;;;;19.07;56.17;152445.34;1798886;79;21708;-65
2022/09/25 10:09:37;;;;;;;2.70;1.50;;;;;;;19.15;56.11;152467.55;1790541;79;21108;-66
2022/09/25 10:12:09;;;;;;;5.28;1.75;;;;;;;19.23;56.11;152487.13;1796321;79;21500;-67
2022/09/25 10:14:39;;;;;;;1.77;1.42;;;;;;;19.28;56.07;152498.84;1786939;79;22045;-67
2022/09/25 10:17:10;;;;;;;1.67;1.40;;;;;;;19.29;55.29;152501.45;1770096;79;21081;-67
2022/09/25 10:19:56;;;;;;;1.50;1.30;;;;;;;19.30;54.81;152504.06;1794354;79;21100;-66
2022/09/25 10:22:26;;;;;;;2.65;1.50;;;;;;;19.31;55.06;152508.00;1789231;79;21535;-65
2022/09/25 10:25:01;;;;;;;6.72;1.40;;;;;;;19.35;52.24;152517.16;1798183;78;21164;-65
2022/09/25 10:27:46;;;;;;;2.50;1.52;;;;;;;19.38;50.34;152524.98;1790288;79;21001;-66
2022/09/25 10:30:21;;;;;;;1.65;1.42;;;;;;;19.41;47.85;152532.81;1801126;79;21019;-66
2022/09/25 10:32:59;;;;;;;4.08;1.65;;;;;;;19.42;46.56;152535.42;1782830;79;27226;-65
2022/09/25 10:35:44;;;;;;;1.85;1.42;;;;;;;19.43;46.42;152538.03;1799920;79;21560;-66
2022/09/25 10:38:40;;;;;;;3.05;1.50;;;;;;;19.40;46.37;152530.20;1798076;79;21113;-66
2022/09/25 10:41:16;;;;;;;3.92;1.40;;;;;;;19.33;47.35;152513.22;1798194;79;21038;-65
2022/09/25 10:43:53;;;;;;;3.37;1.60;;;;;;;19.27;47.92;152497.56;1792703;79;21042;-66
2022/09/25 10:52:13;;;;;;;2.35;1.60;;;;;;;19.23;49.59;152487.13;1790078;79;21398;-67
2022/09/25 10:54:41;;;;;;;4.70;2.30;;;;;;;19.26;49.99;152493.63;1795647;79;21034;-67
2022/09/25 10:57:27;;;;;;;4.78;1.67;;;;;;;19.25;50.27;152491.02;1797645;78;21449;-67
2022/09/25 10:59:54;;;;;;;2.92;1.50;;;;;;;19.26;50.38;152493.63;1790467;79;21023;-61
2022/09/25 11:02:37;;;;;;;4.35;2.20;;;;;;;19.24;47.97;152488.41;1749485;79;21039;-60
2022/09/25 11:05:07;;;;;;;4.20;1.85;;;;;;;19.20;48.33;152477.97;1787643;79;21210;-61
2022/09/25 11:07:36;;;;;;;6.22;1.72;;;;;;;19.15;48.80;152466.22;1753510;79;21025;-66
2022/09/25 11:10:03;;;;;;;2.90;1.70;;;;;;;19.10;48.16;152454.45;1785837;79;21618;-67
2022/09/25 11:12:31;;;;;;;3.98;1.85;;;;;;;19.10;48.02;152454.45;1762103;79;21552;-65
2022/09/25 11:15:01;;;;;;;4.72;1.80;;;;;;;19.12;47.14;152458.39;1777919;79;21460;-61
2022/09/25 11:17:43;;;;;;;3.12;1.95;;;;;;;19.14;46.70;152464.94;1789136;79;21469;-61
2022/09/25 11:20:18;;;;;;;2.92;1.90;;;;;;;19.13;46.47;152462.33;1792836;79;21054;-66
2022/09/25 11:23:15;;;;;;;4.70;2.45;;;;;;;19.16;45.56;152470.16;1781299;79;20934;-66
2022/09/25 11:26:08;;;;;;;7.75;2.02;;;;;;;19.25;45.08;152491.02;1786377;79;21030;-65
2022/09/25 11:28:55;;;;;;;3.42;1.90;;;;;;;19.36;44.93;152518.44;1777089;79;21041;-61
2022/09/25 11:31:28;;;;;;;5.50;1.80;;;;;;;19.49;44.53;152551.06;1777489;79;21271;-62
2022/09/25 11:34:23;;;;;;;4.12;1.80;;;;;;;19.55;42.48;152566.72;1789200;78;21067;-60
2022/09/25 11:36:58;;;;;;;2.30;1.60;;;;;;;19.58;41.81;152574.59;1784764;79;28731;-61
2022/09/25 11:42:24;;;;;;;3.30;2.02;;;;;;;19.57;42.42;152571.98;1710458;79;21058;-62
2022/09/25 11:45:09;;;;;;;3.27;2.15;;;;;;;19.57;42.89;152571.98;1786204;79;21935;-60
2022/09/25 11:47:42;;;;;;;2.87;1.98;;;;;;;19.60;42.54;152579.81;1786095;79;28127;-67
2022/09/25 11:50:15;;;;;;;6.72;1.82;;;;;;;19.60;42.02;152579.81;1780426;79;21126;-67
2022/09/25 11:53:22;;;;;;;3.10;2.10;;;;;;;19.60;42.47;152579.81;1790034;78;21061;-61
2022/09/25 11:55:58;;;;;;;;;;;;;;;19.57;44.35;152571.98;1788753;79;21926;-66
2022/09/25 11:58:39;;;;;;;2.95;1.87;;;;;;;19.51;44.09;152556.28;1780985;79;21246;-67
2022/09/25 12:01:37;;;;;;;4.62;2.05;;;;;;;19.43;44.14;152538.03;1782156;79;21124;-66
2022/09/25 12:04:33;;;;;;;2.42;1.80;;;;;;;19.35;44.56;152517.16;1777133;79;21055;-67